Terminal Aerodrome Forecast
Issued by NWS Twin Cities, MN

Home | Current Version | Previous Version | Text Only | Print | Product List | Glossary Off
Versions: 1 2 3 4 5 6 7 8 9 10 11 12 13 14 15 16 17 18 19 20 21 22 23 24 25 26

000
FTUS43 KMPX 281100
TAFMSP
TAF
KMSP 281132Z 2812/2918 27012KT P6SM BKN050
     FM281500 27014G20KT P6SM BKN020 OVC040
     FM282000 28017G24KT P6SM BKN030 OVC050
     FM290100 29013G20KT P6SM FEW030 OVC050
     FM290600 30008KT P6SM OVC100=

USA.gov is the U.S. government's official web portal to all federal, state and local government web resources and services.